sensor_id;sensor_type;location;lat;lon;timestamp;P1;durP1;ratioP1;P2;durP2;ratioP2
22935;SDS011;11633;42.716;23.312;2023-05-07T00:00:05;12.73;;;9.27;;
22935;SDS011;11633;42.716;23.312;2023-05-07T00:02:34;11.43;;;9.40;;
22935;SDS011;11633;42.716;23.312;2023-05-07T00:04:59;16.55;;;8.80;;
22935;SDS011;11633;42.716;23.312;2023-05-07T00:07:24;14.32;;;9.32;;
22935;SDS011;11633;42.716;23.312;2023-05-07T00:09:50;10.25;;;8.25;;
22935;SDS011;11633;42.716;23.312;2023-05-07T00:12:15;11.75;;;8.27;;
22935;SDS011;11633;42.716;23.312;2023-05-07T00:14:40;10.65;;;8.45;;
22935;SDS011;11633;42.716;23.312;2023-05-07T00:17:06;13.43;;;9.30;;
22935;SDS011;11633;42.716;23.312;2023-05-07T00:19:31;11.55;;;7.90;;
22935;SDS011;11633;42.716;23.312;2023-05-07T00:21:56;11.43;;;8.63;;
22935;SDS011;11633;42.716;23.312;2023-05-07T00:24:23;10.63;;;7.40;;
22935;SDS011;11633;42.716;23.312;2023-05-07T00:26:48;12.10;;;7.68;;
22935;SDS011;11633;42.716;23.312;2023-05-07T00:29:13;12.25;;;7.72;;
22935;SDS011;11633;42.716;23.312;2023-05-07T00:31:39;11.35;;;8.30;;
22935;SDS011;11633;42.716;23.312;2023-05-07T00:34:04;11.70;;;8.65;;
22935;SDS011;11633;42.716;23.312;2023-05-07T00:36:29;10.02;;;7.75;;
22935;SDS011;11633;42.716;23.312;2023-05-07T00:38:56;12.15;;;8.57;;
22935;SDS011;11633;42.716;23.312;2023-05-07T00:41:21;10.57;;;8.02;;
22935;SDS011;11633;42.716;23.312;2023-05-07T00:43:47;10.65;;;8.00;;
22935;SDS011;11633;42.716;23.312;2023-05-07T00:46:13;11.65;;;8.23;;
22935;SDS011;11633;42.716;23.312;2023-05-07T00:48:38;11.55;;;7.88;;
22935;SDS011;11633;42.716;23.312;2023-05-07T00:51:03;10.10;;;7.65;;
22935;SDS011;11633;42.716;23.312;2023-05-07T00:53:28;10.38;;;7.53;;
22935;SDS011;11633;42.716;23.312;2023-05-07T00:55:55;11.35;;;7.53;;
22935;SDS011;11633;42.716;23.312;2023-05-07T00:58:21;9.25;;;7.72;;
22935;SDS011;11633;42.716;23.312;2023-05-07T01:00:46;10.23;;;8.65;;
22935;SDS011;11633;42.716;23.312;2023-05-07T01:03:11;11.52;;;8.02;;
22935;SDS011;11633;42.716;23.312;2023-05-07T01:05:36;9.00;;;7.25;;
22935;SDS011;11633;42.716;23.312;2023-05-07T01:08:02;10.35;;;7.28;;
22935;SDS011;11633;42.716;23.312;2023-05-07T01:10:27;8.65;;;7.10;;
22935;SDS011;11633;42.716;23.312;2023-05-07T01:12:55;8.68;;;7.35;;
22935;SDS011;11633;42.716;23.312;2023-05-07T01:15:20;7.70;;;6.63;;
22935;SDS011;11633;42.716;23.312;2023-05-07T01:17:45;8.52;;;6.80;;
22935;SDS011;11633;42.716;23.312;2023-05-07T01:20:11;9.15;;;7.28;;
22935;SDS011;11633;42.716;23.312;2023-05-07T01:22:37;8.40;;;6.93;;
22935;SDS011;11633;42.716;23.312;2023-05-07T01:25:03;11.50;;;7.32;;
22935;SDS011;11633;42.716;23.312;2023-05-07T01:27:28;10.60;;;8.13;;
22935;SDS011;11633;42.716;23.312;2023-05-07T01:29:53;10.10;;;7.75;;
22935;SDS011;11633;42.716;23.312;2023-05-07T01:32:21;9.10;;;7.00;;
22935;SDS011;11633;42.716;23.312;2023-05-07T01:34:48;9.95;;;7.05;;
22935;SDS011;11633;42.716;23.312;2023-05-07T01:37:14;9.18;;;7.03;;
22935;SDS011;11633;42.716;23.312;2023-05-07T01:39:39;9.88;;;7.47;;
22935;SDS011;11633;42.716;23.312;2023-05-07T01:42:05;9.30;;;7.03;;
22935;SDS011;11633;42.716;23.312;2023-05-07T01:44:30;10.43;;;7.28;;
22935;SDS011;11633;42.716;23.312;2023-05-07T01:46:55;10.77;;;7.05;;
22935;SDS011;11633;42.716;23.312;2023-05-07T01:49:21;10.38;;;8.18;;
22935;SDS011;11633;42.716;23.312;2023-05-07T01:51:48;12.95;;;7.40;;
22935;SDS011;11633;42.716;23.312;2023-05-07T01:54:13;12.40;;;7.25;;
22935;SDS011;11633;42.716;23.312;2023-05-07T01:56:39;10.57;;;7.13;;
22935;SDS011;11633;42.716;23.312;2023-05-07T01:59:04;8.10;;;6.93;;
22935;SDS011;11633;42.716;23.312;2023-05-07T02:01:30;7.88;;;6.90;;
22935;SDS011;11633;42.716;23.312;2023-05-07T02:03:55;12.30;;;7.05;;
22935;SDS011;11633;42.716;23.312;2023-05-07T02:06:21;7.70;;;5.70;;
22935;SDS011;11633;42.716;23.312;2023-05-07T02:08:46;7.18;;;6.45;;
22935;SDS011;11633;42.716;23.312;2023-05-07T02:11:12;9.77;;;5.88;;
22935;SDS011;11633;42.716;23.312;2023-05-07T02:13:37;7.63;;;5.55;;
22935;SDS011;11633;42.716;23.312;2023-05-07T02:16:02;6.38;;;5.30;;
22935;SDS011;11633;42.716;23.312;2023-05-07T02:18:28;6.68;;;5.85;;
22935;SDS011;11633;42.716;23.312;2023-05-07T02:20:53;7.85;;;6.22;;
22935;SDS011;11633;42.716;23.312;2023-05-07T02:23:18;7.80;;;6.15;;
22935;SDS011;11633;42.716;23.312;2023-05-07T02:25:44;7.45;;;5.53;;
22935;SDS011;11633;42.716;23.312;2023-05-07T02:28:09;7.07;;;6.28;;
22935;SDS011;11633;42.716;23.312;2023-05-07T02:30:35;7.60;;;6.35;;
22935;SDS011;11633;42.716;23.312;2023-05-07T02:33:00;8.57;;;6.20;;
22935;SDS011;11633;42.716;23.312;2023-05-07T02:35:25;8.73;;;6.55;;
22935;SDS011;11633;42.716;23.312;2023-05-07T02:37:51;9.77;;;6.45;;
22935;SDS011;11633;42.716;23.312;2023-05-07T02:40:17;9.13;;;7.65;;
22935;SDS011;11633;42.716;23.312;2023-05-07T02:42:42;10.95;;;6.72;;
22935;SDS011;11633;42.716;23.312;2023-05-07T02:45:07;9.13;;;7.30;;
22935;SDS011;11633;42.716;23.312;2023-05-07T02:47:33;8.40;;;6.68;;
22935;SDS011;11633;42.716;23.312;2023-05-07T02:49:58;10.13;;;7.63;;
22935;SDS011;11633;42.716;23.312;2023-05-07T02:52:23;9.52;;;7.97;;
22935;SDS011;11633;42.716;23.312;2023-05-07T02:54:48;10.40;;;7.88;;
22935;SDS011;11633;42.716;23.312;2023-05-07T02:57:14;12.40;;;8.20;;
22935;SDS011;11633;42.716;23.312;2023-05-07T02:59:39;11.07;;;8.20;;
22935;SDS011;11633;42.716;23.312;2023-05-07T03:02:05;10.73;;;8.00;;
22935;SDS011;11633;42.716;23.312;2023-05-07T03:04:30;11.13;;;7.53;;
22935;SDS011;11633;42.716;23.312;2023-05-07T03:06:55;10.32;;;7.68;;
22935;SDS011;11633;42.716;23.312;2023-05-07T03:09:21;8.57;;;7.68;;
22935;SDS011;11633;42.716;23.312;2023-05-07T03:11:46;9.98;;;8.13;;
22935;SDS011;11633;42.716;23.312;2023-05-07T03:14:11;8.38;;;7.38;;
22935;SDS011;11633;42.716;23.312;2023-05-07T03:16:37;10.38;;;7.70;;
22935;SDS011;11633;42.716;23.312;2023-05-07T03:19:03;9.25;;;7.10;;
22935;SDS011;11633;42.716;23.312;2023-05-07T03:21:28;11.07;;;7.68;;
22935;SDS011;11633;42.716;23.312;2023-05-07T03:23:53;8.45;;;6.63;;
22935;SDS011;11633;42.716;23.312;2023-05-07T03:26:18;7.85;;;6.80;;
22935;SDS011;11633;42.716;23.312;2023-05-07T03:28:43;9.10;;;7.22;;
22935;SDS011;11633;42.716;23.312;2023-05-07T03:31:09;9.90;;;6.95;;
22935;SDS011;11633;42.716;23.312;2023-05-07T03:33:34;9.73;;;6.80;;
22935;SDS011;11633;42.716;23.312;2023-05-07T03:36:00;9.10;;;6.95;;
22935;SDS011;11633;42.716;23.312;2023-05-07T03:38:25;9.88;;;6.95;;
22935;SDS011;11633;42.716;23.312;2023-05-07T03:40:50;10.38;;;6.60;;
22935;SDS011;11633;42.716;23.312;2023-05-07T03:43:16;9.85;;;6.72;;
22935;SDS011;11633;42.716;23.312;2023-05-07T03:45:41;7.95;;;6.50;;
22935;SDS011;11633;42.716;23.312;2023-05-07T03:48:06;9.75;;;6.65;;
22935;SDS011;11633;42.716;23.312;2023-05-07T03:50:32;9.20;;;5.85;;
22935;SDS011;11633;42.716;23.312;2023-05-07T03:52:57;8.70;;;5.68;;
22935;SDS011;11633;42.716;23.312;2023-05-07T03:55:22;6.80;;;4.72;;
22935;SDS011;11633;42.716;23.312;2023-05-07T03:57:47;5.55;;;5.03;;
22935;SDS011;11633;42.716;23.312;2023-05-07T04:00:13;7.25;;;5.07;;
22935;SDS011;11633;42.716;23.312;2023-05-07T04:02:38;6.00;;;5.32;;
22935;SDS011;11633;42.716;23.312;2023-05-07T04:05:03;6.70;;;4.78;;
22935;SDS011;11633;42.716;23.312;2023-05-07T04:07:29;7.43;;;4.93;;
22935;SDS011;11633;42.716;23.312;2023-05-07T04:09:54;6.32;;;5.35;;
22935;SDS011;11633;42.716;23.312;2023-05-07T04:12:20;7.43;;;5.35;;
22935;SDS011;11633;42.716;23.312;2023-05-07T04:14:45;5.97;;;5.28;;
22935;SDS011;11633;42.716;23.312;2023-05-07T04:17:10;6.38;;;4.90;;
22935;SDS011;11633;42.716;23.312;2023-05-07T04:19:36;6.68;;;4.82;;
22935;SDS011;11633;42.716;23.312;2023-05-07T04:22:01;5.57;;;4.82;;
22935;SDS011;11633;42.716;23.312;2023-05-07T04:24:26;6.45;;;5.13;;
22935;SDS011;11633;42.716;23.312;2023-05-07T04:26:51;6.15;;;4.32;;
22935;SDS011;11633;42.716;23.312;2023-05-07T04:29:17;5.85;;;4.63;;
22935;SDS011;11633;42.716;23.312;2023-05-07T04:31:42;7.28;;;5.00;;
22935;SDS011;11633;42.716;23.312;2023-05-07T04:34:09;5.38;;;4.88;;
22935;SDS011;11633;42.716;23.312;2023-05-07T04:36:36;5.13;;;4.60;;
22935;SDS011;11633;42.716;23.312;2023-05-07T04:39:02;5.28;;;4.57;;
22935;SDS011;11633;42.716;23.312;2023-05-07T04:41:27;6.75;;;5.60;;
22935;SDS011;11633;42.716;23.312;2023-05-07T04:43:53;5.75;;;4.45;;
22935;SDS011;11633;42.716;23.312;2023-05-07T04:46:18;6.47;;;4.55;;
22935;SDS011;11633;42.716;23.312;2023-05-07T04:48:43;5.78;;;4.78;;
22935;SDS011;11633;42.716;23.312;2023-05-07T04:51:08;5.35;;;4.45;;
22935;SDS011;11633;42.716;23.312;2023-05-07T04:53:34;5.88;;;5.00;;
22935;SDS011;11633;42.716;23.312;2023-05-07T04:55:59;12.60;;;6.43;;
22935;SDS011;11633;42.716;23.312;2023-05-07T04:58:24;5.28;;;4.60;;
22935;SDS011;11633;42.716;23.312;2023-05-07T05:00:50;7.68;;;5.22;;
22935;SDS011;11633;42.716;23.312;2023-05-07T05:03:15;6.47;;;5.57;;
22935;SDS011;11633;42.716;23.312;2023-05-07T05:05:40;7.10;;;4.60;;
22935;SDS011;11633;42.716;23.312;2023-05-07T05:08:06;6.93;;;4.93;;
22935;SDS011;11633;42.716;23.312;2023-05-07T05:10:31;6.18;;;5.57;;
22935;SDS011;11633;42.716;23.312;2023-05-07T05:12:56;6.13;;;5.00;;
22935;SDS011;11633;42.716;23.312;2023-05-07T05:15:21;7.15;;;5.57;;
22935;SDS011;11633;42.716;23.312;2023-05-07T05:17:46;7.30;;;5.93;;
22935;SDS011;11633;42.716;23.312;2023-05-07T05:20:12;6.28;;;5.20;;
22935;SDS011;11633;42.716;23.312;2023-05-07T05:22:37;6.13;;;5.43;;
22935;SDS011;11633;42.716;23.312;2023-05-07T05:25:03;6.88;;;5.65;;
22935;SDS011;11633;42.716;23.312;2023-05-07T05:27:28;5.13;;;4.60;;
22935;SDS011;11633;42.716;23.312;2023-05-07T05:29:53;9.98;;;5.47;;
22935;SDS011;11633;42.716;23.312;2023-05-07T05:32:19;8.93;;;5.78;;
22935;SDS011;11633;42.716;23.312;2023-05-07T05:34:44;6.78;;;5.95;;
22935;SDS011;11633;42.716;23.312;2023-05-07T05:37:09;7.22;;;5.95;;
22935;SDS011;11633;42.716;23.312;2023-05-07T05:39:35;6.15;;;5.47;;
22935;SDS011;11633;42.716;23.312;2023-05-07T05:42:00;6.75;;;5.70;;
22935;SDS011;11633;42.716;23.312;2023-05-07T05:44:25;10.05;;;6.18;;
22935;SDS011;11633;42.716;23.312;2023-05-07T05:46:51;7.13;;;5.10;;
22935;SDS011;11633;42.716;23.312;2023-05-07T05:49:16;10.10;;;6.47;;
22935;SDS011;11633;42.716;23.312;2023-05-07T05:51:41;7.63;;;6.82;;
22935;SDS011;11633;42.716;23.312;2023-05-07T05:54:06;6.97;;;6.00;;
22935;SDS011;11633;42.716;23.312;2023-05-07T05:56:32;7.38;;;6.60;;
22935;SDS011;11633;42.716;23.312;2023-05-07T05:58:57;6.40;;;5.50;;
22935;SDS011;11633;42.716;23.312;2023-05-07T06:01:22;7.47;;;6.15;;
22935;SDS011;11633;42.716;23.312;2023-05-07T06:03:48;8.27;;;6.32;;
22935;SDS011;11633;42.716;23.312;2023-05-07T06:06:13;7.43;;;6.70;;
22935;SDS011;11633;42.716;23.312;2023-05-07T06:08:39;10.82;;;6.55;;
22935;SDS011;11633;42.716;23.312;2023-05-07T06:11:04;7.47;;;5.93;;
22935;SDS011;11633;42.716;23.312;2023-05-07T06:13:30;7.38;;;6.25;;
22935;SDS011;11633;42.716;23.312;2023-05-07T06:15:55;7.20;;;6.37;;
22935;SDS011;11633;42.716;23.312;2023-05-07T06:18:20;7.60;;;6.80;;
22935;SDS011;11633;42.716;23.312;2023-05-07T06:20:45;10.33;;;7.00;;
22935;SDS011;11633;42.716;23.312;2023-05-07T06:23:10;8.40;;;6.60;;
22935;SDS011;11633;42.716;23.312;2023-05-07T06:25:36;8.23;;;7.35;;
22935;SDS011;11633;42.716;23.312;2023-05-07T06:28:01;7.15;;;6.43;;
22935;SDS011;11633;42.716;23.312;2023-05-07T06:30:26;8.55;;;7.65;;
22935;SDS011;11633;42.716;23.312;2023-05-07T06:32:52;9.90;;;7.78;;
22935;SDS011;11633;42.716;23.312;2023-05-07T06:35:17;6.95;;;6.25;;
22935;SDS011;11633;42.716;23.312;2023-05-07T06:37:42;7.60;;;6.80;;
22935;SDS011;11633;42.716;23.312;2023-05-07T06:40:10;8.20;;;7.40;;
22935;SDS011;11633;42.716;23.312;2023-05-07T06:42:36;9.63;;;7.70;;
22935;SDS011;11633;42.716;23.312;2023-05-07T06:45:02;14.32;;;9.93;;
22935;SDS011;11633;42.716;23.312;2023-05-07T06:47:27;8.82;;;7.38;;
22935;SDS011;11633;42.716;23.312;2023-05-07T06:49:52;7.47;;;6.67;;
22935;SDS011;11633;42.716;23.312;2023-05-07T06:52:18;8.73;;;7.82;;
22935;SDS011;11633;42.716;23.312;2023-05-07T06:54:43;8.07;;;6.80;;
22935;SDS011;11633;42.716;23.312;2023-05-07T06:57:08;8.02;;;6.25;;
22935;SDS011;11633;42.716;23.312;2023-05-07T06:59:34;8.48;;;7.13;;
22935;SDS011;11633;42.716;23.312;2023-05-07T07:01:59;8.60;;;6.38;;
22935;SDS011;11633;42.716;23.312;2023-05-07T07:04:24;7.70;;;6.95;;
22935;SDS011;11633;42.716;23.312;2023-05-07T07:06:51;8.55;;;6.90;;
22935;SDS011;11633;42.716;23.312;2023-05-07T07:09:16;8.48;;;7.53;;
22935;SDS011;11633;42.716;23.312;2023-05-07T07:11:42;8.88;;;7.40;;
22935;SDS011;11633;42.716;23.312;2023-05-07T07:14:07;7.43;;;6.72;;
22935;SDS011;11633;42.716;23.312;2023-05-07T07:16:32;8.27;;;7.00;;
22935;SDS011;11633;42.716;23.312;2023-05-07T07:18:57;7.57;;;6.87;;
22935;SDS011;11633;42.716;23.312;2023-05-07T07:21:23;9.15;;;6.20;;
22935;SDS011;11633;42.716;23.312;2023-05-07T07:23:48;7.57;;;6.10;;
22935;SDS011;11633;42.716;23.312;2023-05-07T07:26:13;7.35;;;6.10;;
22935;SDS011;11633;42.716;23.312;2023-05-07T07:28:42;10.10;;;6.27;;
22935;SDS011;11633;42.716;23.312;2023-05-07T07:31:07;7.63;;;6.07;;
22935;SDS011;11633;42.716;23.312;2023-05-07T07:33:32;8.18;;;6.07;;
22935;SDS011;11633;42.716;23.312;2023-05-07T07:35:58;9.25;;;6.63;;
22935;SDS011;11633;42.716;23.312;2023-05-07T07:38:23;6.37;;;5.77;;
22935;SDS011;11633;42.716;23.312;2023-05-07T07:40:48;9.77;;;5.60;;
22935;SDS011;11633;42.716;23.312;2023-05-07T07:43:13;7.07;;;6.38;;
22935;SDS011;11633;42.716;23.312;2023-05-07T07:45:39;7.28;;;5.68;;
22935;SDS011;11633;42.716;23.312;2023-05-07T07:48:04;9.80;;;6.45;;
22935;SDS011;11633;42.716;23.312;2023-05-07T07:50:30;6.10;;;5.50;;
22935;SDS011;11633;42.716;23.312;2023-05-07T07:52:55;7.72;;;6.90;;
22935;SDS011;11633;42.716;23.312;2023-05-07T07:55:20;9.00;;;5.68;;
22935;SDS011;11633;42.716;23.312;2023-05-07T07:57:48;7.30;;;5.97;;
22935;SDS011;11633;42.716;23.312;2023-05-07T08:00:13;8.18;;;6.03;;
22935;SDS011;11633;42.716;23.312;2023-05-07T08:02:38;6.93;;;5.82;;
22935;SDS011;11633;42.716;23.312;2023-05-07T08:05:04;8.73;;;5.78;;
22935;SDS011;11633;42.716;23.312;2023-05-07T08:07:29;6.32;;;5.28;;
22935;SDS011;11633;42.716;23.312;2023-05-07T08:09:55;8.00;;;5.57;;
22935;SDS011;11633;42.716;23.312;2023-05-07T08:12:20;8.00;;;5.78;;
22935;SDS011;11633;42.716;23.312;2023-05-07T08:14:45;8.13;;;5.85;;
22935;SDS011;11633;42.716;23.312;2023-05-07T08:17:10;6.13;;;5.53;;
22935;SDS011;11633;42.716;23.312;2023-05-07T08:19:36;9.93;;;5.90;;
22935;SDS011;11633;42.716;23.312;2023-05-07T08:22:02;8.82;;;5.68;;
22935;SDS011;11633;42.716;23.312;2023-05-07T08:24:27;6.43;;;5.22;;
22935;SDS011;11633;42.716;23.312;2023-05-07T08:26:53;6.10;;;4.20;;
22935;SDS011;11633;42.716;23.312;2023-05-07T08:29:18;9.07;;;5.75;;
22935;SDS011;11633;42.716;23.312;2023-05-07T08:31:43;8.15;;;4.93;;
22935;SDS011;11633;42.716;23.312;2023-05-07T08:34:08;6.22;;;4.70;;
22935;SDS011;11633;42.716;23.312;2023-05-07T08:36:34;5.90;;;4.93;;
22935;SDS011;11633;42.716;23.312;2023-05-07T08:38:59;6.38;;;4.85;;
22935;SDS011;11633;42.716;23.312;2023-05-07T08:41:24;5.55;;;4.80;;
22935;SDS011;11633;42.716;23.312;2023-05-07T08:43:50;5.90;;;5.05;;
22935;SDS011;11633;42.716;23.312;2023-05-07T08:46:19;8.63;;;4.55;;
22935;SDS011;11633;42.716;23.312;2023-05-07T08:48:45;8.15;;;3.78;;
22935;SDS011;11633;42.716;23.312;2023-05-07T08:51:13;5.03;;;4.20;;
22935;SDS011;11633;42.716;23.312;2023-05-07T08:53:40;6.35;;;4.47;;
22935;SDS011;11633;42.716;23.312;2023-05-07T08:56:05;4.80;;;3.65;;
22935;SDS011;11633;42.716;23.312;2023-05-07T08:58:31;6.53;;;3.83;;
22935;SDS011;11633;42.716;23.312;2023-05-07T09:00:56;3.63;;;2.50;;
22935;SDS011;11633;42.716;23.312;2023-05-07T09:03:21;4.30;;;3.00;;
22935;SDS011;11633;42.716;23.312;2023-05-07T09:05:46;3.97;;;3.15;;
22935;SDS011;11633;42.716;23.312;2023-05-07T09:08:14;3.72;;;3.40;;
22935;SDS011;11633;42.716;23.312;2023-05-07T09:10:39;5.15;;;3.97;;
22935;SDS011;11633;42.716;23.312;2023-05-07T09:13:05;4.00;;;3.60;;
22935;SDS011;11633;42.716;23.312;2023-05-07T09:15:30;6.88;;;3.83;;
22935;SDS011;11633;42.716;23.312;2023-05-07T09:17:59;6.07;;;3.65;;
22935;SDS011;11633;42.716;23.312;2023-05-07T09:20:25;3.53;;;3.13;;
22935;SDS011;11633;42.716;23.312;2023-05-07T09:22:51;4.22;;;3.40;;
22935;SDS011;11633;42.716;23.312;2023-05-07T09:25:17;5.95;;;3.40;;
22935;SDS011;11633;42.716;23.312;2023-05-07T09:27:52;6.68;;;3.45;;
22935;SDS011;11633;42.716;23.312;2023-05-07T09:30:17;3.85;;;3.17;;
22935;SDS011;11633;42.716;23.312;2023-05-07T09:32:43;3.58;;;3.20;;
22935;SDS011;11633;42.716;23.312;2023-05-07T09:35:14;4.25;;;3.53;;
22935;SDS011;11633;42.716;23.312;2023-05-07T09:37:40;2.75;;;2.20;;
22935;SDS011;11633;42.716;23.312;2023-05-07T09:40:06;3.65;;;3.05;;
22935;SDS011;11633;42.716;23.312;2023-05-07T09:42:32;6.25;;;3.30;;
22935;SDS011;11633;42.716;23.312;2023-05-07T09:44:58;5.65;;;3.95;;
22935;SDS011;11633;42.716;23.312;2023-05-07T09:47:24;4.63;;;2.72;;
22935;SDS011;11633;42.716;23.312;2023-05-07T09:49:50;5.68;;;3.22;;
22935;SDS011;11633;42.716;23.312;2023-05-07T09:52:20;5.30;;;3.00;;
22935;SDS011;11633;42.716;23.312;2023-05-07T09:54:45;5.00;;;3.20;;
22935;SDS011;11633;42.716;23.312;2023-05-07T09:57:12;4.95;;;3.13;;
22935;SDS011;11633;42.716;23.312;2023-05-07T09:59:38;3.40;;;2.95;;
22935;SDS011;11633;42.716;23.312;2023-05-07T10:02:07;3.50;;;2.85;;
22935;SDS011;11633;42.716;23.312;2023-05-07T10:04:35;3.35;;;2.97;;
22935;SDS011;11633;42.716;23.312;2023-05-07T10:07:00;4.03;;;2.67;;
22935;SDS011;11633;42.716;23.312;2023-05-07T10:09:26;3.60;;;2.75;;
22935;SDS011;11633;42.716;23.312;2023-05-07T10:11:52;3.05;;;2.50;;
22935;SDS011;11633;42.716;23.312;2023-05-07T10:14:17;2.88;;;2.50;;
22935;SDS011;11633;42.716;23.312;2023-05-07T10:16:44;2.25;;;2.05;;
22935;SDS011;11633;42.716;23.312;2023-05-07T10:19:09;2.85;;;1.95;;
22935;SDS011;11633;42.716;23.312;2023-05-07T10:21:39;4.43;;;2.00;;
22935;SDS011;11633;42.716;23.312;2023-05-07T10:24:05;3.15;;;1.63;;
22935;SDS011;11633;42.716;23.312;2023-05-07T10:26:38;2.20;;;2.00;;
22935;SDS011;11633;42.716;23.312;2023-05-07T10:29:07;3.20;;;2.30;;
22935;SDS011;11633;42.716;23.312;2023-05-07T10:34:12;3.63;;;2.10;;
22935;SDS011;11633;42.716;23.312;2023-05-07T10:36:39;3.22;;;1.80;;
22935;SDS011;11633;42.716;23.312;2023-05-07T10:39:05;3.40;;;2.03;;
22935;SDS011;11633;42.716;23.312;2023-05-07T10:41:31;2.22;;;1.95;;
22935;SDS011;11633;42.716;23.312;2023-05-07T10:43:56;3.53;;;2.65;;
22935;SDS011;11633;42.716;23.312;2023-05-07T10:46:22;3.88;;;2.20;;
22935;SDS011;11633;42.716;23.312;2023-05-07T10:51:28;2.25;;;2.05;;
22935;SDS011;11633;42.716;23.312;2023-05-07T10:56:35;3.17;;;2.30;;
22935;SDS011;11633;42.716;23.312;2023-05-07T11:01:59;3.78;;;2.13;;
22935;SDS011;11633;42.716;23.312;2023-05-07T11:04:27;2.53;;;2.33;;
22935;SDS011;11633;42.716;23.312;2023-05-07T11:17:27;2.50;;;2.10;;
22935;SDS011;11633;42.716;23.312;2023-05-07T11:19:56;2.90;;;2.35;;
22935;SDS011;11633;42.716;23.312;2023-05-07T11:24:56;3.67;;;3.05;;
22935;SDS011;11633;42.716;23.312;2023-05-07T11:27:27;3.53;;;1.60;;
22935;SDS011;11633;42.716;23.312;2023-05-07T11:29:53;3.13;;;2.75;;
22935;SDS011;11633;42.716;23.312;2023-05-07T11:32:25;2.20;;;2.00;;
22935;SDS011;11633;42.716;23.312;2023-05-07T11:34:51;3.00;;;1.88;;
22935;SDS011;11633;42.716;23.312;2023-05-07T11:37:17;2.50;;;1.65;;
22935;SDS011;11633;42.716;23.312;2023-05-07T11:39:42;2.30;;;1.90;;
22935;SDS011;11633;42.716;23.312;2023-05-07T11:42:24;2.78;;;2.50;;
22935;SDS011;11633;42.716;23.312;2023-05-07T11:44:50;1.65;;;1.55;;
22935;SDS011;11633;42.716;23.312;2023-05-07T11:47:18;1.90;;;1.60;;
22935;SDS011;11633;42.716;23.312;2023-05-07T11:49:46;3.92;;;1.98;;
22935;SDS011;11633;42.716;23.312;2023-05-07T11:52:12;4.13;;;2.95;;
22935;SDS011;11633;42.716;23.312;2023-05-07T11:54:38;3.88;;;2.20;;
22935;SDS011;11633;42.716;23.312;2023-05-07T11:57:03;2.17;;;1.75;;
22935;SDS011;11633;42.716;23.312;2023-05-07T11:59:28;4.32;;;3.10;;
22935;SDS011;11633;42.716;23.312;2023-05-07T12:01:57;1.75;;;1.60;;
22935;SDS011;11633;42.716;23.312;2023-05-07T12:04:24;2.28;;;1.67;;
22935;SDS011;11633;42.716;23.312;2023-05-07T12:06:49;1.90;;;1.50;;
22935;SDS011;11633;42.716;23.312;2023-05-07T12:09:18;1.73;;;1.40;;
22935;SDS011;11633;42.716;23.312;2023-05-07T12:11:45;1.80;;;1.15;;
22935;SDS011;11633;42.716;23.312;2023-05-07T12:14:10;2.55;;;1.73;;
22935;SDS011;11633;42.716;23.312;2023-05-07T12:16:36;2.25;;;1.80;;
22935;SDS011;11633;42.716;23.312;2023-05-07T12:19:01;1.60;;;1.50;;
22935;SDS011;11633;42.716;23.312;2023-05-07T12:21:26;2.00;;;1.57;;
22935;SDS011;11633;42.716;23.312;2023-05-07T12:23:52;2.40;;;1.42;;
22935;SDS011;11633;42.716;23.312;2023-05-07T12:26:18;2.13;;;1.70;;
22935;SDS011;11633;42.716;23.312;2023-05-07T12:28:44;3.10;;;1.70;;
22935;SDS011;11633;42.716;23.312;2023-05-07T12:31:09;1.88;;;1.67;;
22935;SDS011;11633;42.716;23.312;2023-05-07T12:33:35;4.10;;;2.30;;
22935;SDS011;11633;42.716;23.312;2023-05-07T12:36:05;1.77;;;1.60;;
22935;SDS011;11633;42.716;23.312;2023-05-07T12:38:34;1.75;;;1.60;;
22935;SDS011;11633;42.716;23.312;2023-05-07T12:40:59;1.48;;;1.33;;
22935;SDS011;11633;42.716;23.312;2023-05-07T12:43:28;2.72;;;1.92;;
22935;SDS011;11633;42.716;23.312;2023-05-07T12:45:54;2.00;;;1.45;;
22935;SDS011;11633;42.716;23.312;2023-05-07T12:48:20;1.65;;;1.55;;
22935;SDS011;11633;42.716;23.312;2023-05-07T12:50:48;2.08;;;1.70;;
22935;SDS011;11633;42.716;23.312;2023-05-07T12:53:14;1.75;;;1.52;;
22935;SDS011;11633;42.716;23.312;2023-05-07T12:55:46;2.80;;;1.48;;
22935;SDS011;11633;42.716;23.312;2023-05-07T12:58:19;2.75;;;1.63;;
22935;SDS011;11633;42.716;23.312;2023-05-07T13:00:45;1.80;;;1.58;;
22935;SDS011;11633;42.716;23.312;2023-05-07T13:03:12;1.45;;;1.33;;
22935;SDS011;11633;42.716;23.312;2023-05-07T13:05:45;1.88;;;1.48;;
22935;SDS011;11633;42.716;23.312;2023-05-07T13:08:10;1.95;;;1.55;;
22935;SDS011;11633;42.716;23.312;2023-05-07T13:10:35;1.67;;;1.50;;
22935;SDS011;11633;42.716;23.312;2023-05-07T13:13:01;2.67;;;1.25;;
22935;SDS011;11633;42.716;23.312;2023-05-07T13:15:26;1.75;;;1.52;;
22935;SDS011;11633;42.716;23.312;2023-05-07T13:17:52;2.08;;;1.70;;
22935;SDS011;11633;42.716;23.312;2023-05-07T13:20:17;1.42;;;1.33;;
22935;SDS011;11633;42.716;23.312;2023-05-07T13:22:43;1.80;;;1.70;;
22935;SDS011;11633;42.716;23.312;2023-05-07T13:25:08;1.87;;;1.67;;
22935;SDS011;11633;42.716;23.312;2023-05-07T13:27:33;2.45;;;1.80;;
22935;SDS011;11633;42.716;23.312;2023-05-07T13:30:02;1.92;;;1.80;;
22935;SDS011;11633;42.716;23.312;2023-05-07T13:32:27;1.55;;;1.45;;
22935;SDS011;11633;42.716;23.312;2023-05-07T13:34:53;2.78;;;1.60;;
22935;SDS011;11633;42.716;23.312;2023-05-07T13:37:18;1.53;;;1.40;;
22935;SDS011;11633;42.716;23.312;2023-05-07T13:39:43;2.42;;;1.80;;
22935;SDS011;11633;42.716;23.312;2023-05-07T13:42:09;3.08;;;1.30;;
22935;SDS011;11633;42.716;23.312;2023-05-07T13:44:34;1.95;;;1.83;;
22935;SDS011;11633;42.716;23.312;2023-05-07T13:47:00;3.80;;;2.10;;
22935;SDS011;11633;42.716;23.312;2023-05-07T13:49:25;1.90;;;1.80;;
22935;SDS011;11633;42.716;23.312;2023-05-07T13:51:50;1.85;;;1.75;;
22935;SDS011;11633;42.716;23.312;2023-05-07T13:54:16;2.00;;;1.80;;
22935;SDS011;11633;42.716;23.312;2023-05-07T13:56:41;4.13;;;2.15;;
22935;SDS011;11633;42.716;23.312;2023-05-07T13:59:06;1.90;;;1.80;;
22935;SDS011;11633;42.716;23.312;2023-05-07T14:01:31;2.22;;;1.80;;
22935;SDS011;11633;42.716;23.312;2023-05-07T14:03:57;1.80;;;1.50;;
22935;SDS011;11633;42.716;23.312;2023-05-07T14:06:25;2.22;;;2.00;;
22935;SDS011;11633;42.716;23.312;2023-05-07T14:08:50;1.95;;;1.77;;
22935;SDS011;11633;42.716;23.312;2023-05-07T14:11:16;3.47;;;1.85;;
22935;SDS011;11633;42.716;23.312;2023-05-07T14:13:41;2.40;;;1.98;;
22935;SDS011;11633;42.716;23.312;2023-05-07T14:16:06;1.75;;;1.40;;
22935;SDS011;11633;42.716;23.312;2023-05-07T14:18:31;3.80;;;2.00;;
22935;SDS011;11633;42.716;23.312;2023-05-07T14:20:58;2.90;;;1.58;;
22935;SDS011;11633;42.716;23.312;2023-05-07T14:23:23;2.13;;;1.90;;
22935;SDS011;11633;42.716;23.312;2023-05-07T14:25:51;2.13;;;1.70;;
22935;SDS011;11633;42.716;23.312;2023-05-07T14:28:16;1.98;;;1.77;;
22935;SDS011;11633;42.716;23.312;2023-05-07T14:30:42;2.00;;;1.80;;
22935;SDS011;11633;42.716;23.312;2023-05-07T14:33:07;3.13;;;2.00;;
22935;SDS011;11633;42.716;23.312;2023-05-07T14:35:32;2.58;;;1.75;;
22935;SDS011;11633;42.716;23.312;2023-05-07T14:37:57;2.33;;;1.93;;
22935;SDS011;11633;42.716;23.312;2023-05-07T14:40:23;2.00;;;1.90;;
22935;SDS011;11633;42.716;23.312;2023-05-07T14:42:48;2.33;;;2.13;;
22935;SDS011;11633;42.716;23.312;2023-05-07T14:45:13;2.88;;;1.70;;
22935;SDS011;11633;42.716;23.312;2023-05-07T14:47:38;4.15;;;2.15;;